Time;durP1;ratioP1;P1;durP2;ratioP2;P2;SDS_P1;SDS_P2;PMS_P1;PMS_P2;Temp;Humidity;BMP_temperature;BMP_pressure;BME280_temperature;BME280_humidity;BME280_pressure;Samples;Min_cycle;Max_cycle;Signal;HPM_P1;HPM_P2
2023/10/13 00:01:55;;;;;;;22.17;16.50;;;18.00;99.90;;;;;;5037582;28;20029;-78
2023/10/13 00:04:24;;;;;;;25.63;17.58;;;18.00;99.90;;;;;;5055470;28;20033;-78
2023/10/13 00:06:51;;;;;;;23.63;17.77;;;18.00;99.90;;;;;;5054310;28;20354;-77
2023/10/13 00:09:16;;;;;;;18.50;16.30;;;18.00;99.90;;;;;;5054841;28;20167;-78
2023/10/13 00:11:46;;;;;;;22.45;16.15;;;18.00;99.90;;;;;;5038374;28;20521;-77
2023/10/13 00:14:16;;;;;;;18.65;15.65;;;18.00;99.90;;;;;;5055328;28;20029;-77
2023/10/13 00:17:00;;;;;;;20.15;15.00;;;18.00;99.90;;;;;;5055632;28;20062;-76
2023/10/13 00:19:46;;;;;;;20.17;14.75;;;18.00;99.90;;;;;;5056011;28;20025;-76
2023/10/13 00:22:15;;;;;;;19.20;14.73;;;18.00;99.90;;;;;;5056084;28;20488;-76
2023/10/13 00:24:43;;;;;;;22.75;14.93;;;17.90;99.90;;;;;;5055998;28;20048;-78
2023/10/13 00:27:29;;;;;;;20.55;14.95;;;17.90;99.90;;;;;;5055348;28;20021;-77
2023/10/13 00:30:17;;;;;;;18.45;13.80;;;17.90;99.90;;;;;;5038056;28;20033;-78
2023/10/13 00:32:53;;;;;;;16.70;13.75;;;17.90;99.90;;;;;;5055663;28;20029;-78
2023/10/13 00:35:28;;;;;;;17.88;13.02;;;17.90;99.90;;;;;;5055468;28;20045;-78
2023/10/13 00:38:04;;;;;;;19.67;14.43;;;18.00;99.90;;;;;;5055398;28;20033;-78
2023/10/13 00:43:34;;;;;;;22.55;13.15;;;18.00;99.90;;;;;;5054924;28;20484;-78
2023/10/13 00:46:06;;;;;;;18.30;12.65;;;17.90;99.90;;;;;;5050712;28;20045;-78
2023/10/13 00:48:34;;;;;;;17.73;12.32;;;18.00;99.90;;;;;;5055543;28;20032;-77
2023/10/13 00:51:08;;;;;;;19.67;13.30;;;18.00;99.90;;;;;;5037082;28;20025;-78
2023/10/13 00:53:39;;;;;;;16.58;11.98;;;18.00;99.90;;;;;;5037285;28;20477;-78
2023/10/13 00:56:07;;;;;;;19.63;12.77;;;18.00;99.90;;;;;;5055110;28;20075;-78
2023/10/13 00:58:39;;;;;;;16.55;11.95;;;18.00;99.90;;;;;;5054906;28;20033;-77
2023/10/13 01:01:17;;;;;;;18.83;12.95;;;18.00;99.90;;;;;;5036616;28;20021;-77
2023/10/13 01:03:55;;;;;;;16.63;12.38;;;18.00;99.90;;;;;;5054702;28;20120;-77
2023/10/13 01:06:25;;;;;;;21.52;13.43;;;18.00;99.90;;;;;;5055056;28;20025;-76
2023/10/13 01:08:57;;;;;;;19.00;12.65;;;18.00;99.90;;;;;;5053929;28;20060;-76
2023/10/13 01:11:23;;;;;;;16.15;13.07;;;18.00;99.90;;;;;;5054398;28;20367;-76
2023/10/13 01:13:51;;;;;;;21.27;12.27;;;18.00;99.90;;;;;;5054006;28;20111;-77
2023/10/13 01:16:26;;;;;;;21.33;13.63;;;18.00;99.90;;;;;;5053382;28;20048;-76
2023/10/13 01:18:53;;;;;;;17.13;12.70;;;17.90;99.90;;;;;;5036661;28;20051;-76
2023/10/13 01:21:27;;;;;;;16.98;12.38;;;18.00;99.90;;;;;;5054677;28;20110;-76
2023/10/13 01:23:53;;;;;;;19.55;13.77;;;18.00;99.90;;;;;;5053895;28;20060;-76
2023/10/13 01:26:24;;;;;;;16.95;13.50;;;18.00;99.90;;;;;;5053747;28;20040;-76
2023/10/13 01:28:51;;;;;;;19.25;13.20;;;18.00;99.90;;;;;;5036259;28;20397;-76
2023/10/13 01:31:38;;;;;;;18.77;13.02;;;18.00;99.90;;;;;;5053403;28;20025;-76
2023/10/13 01:34:03;;;;;;;17.83;12.57;;;18.00;99.90;;;;;;5038157;28;20080;-77
2023/10/13 01:36:35;;;;;;;18.42;11.48;;;18.00;99.90;;;;;;5053333;28;20491;-77
2023/10/13 01:39:01;;;;;;;18.48;12.38;;;18.00;99.90;;;;;;5053625;28;20025;-77
2023/10/13 01:41:27;;;;;;;17.55;10.80;;;18.00;99.90;;;;;;5053190;28;20474;-77
2023/10/13 01:43:52;;;;;;;15.05;11.13;;;18.00;99.90;;;;;;5052724;28;20052;-76
2023/10/13 01:46:21;;;;;;;14.95;10.57;;;18.00;99.90;;;;;;5052943;28;20032;-77
2023/10/13 01:48:47;;;;;;;15.45;10.23;;;18.00;99.90;;;;;;5053315;28;20112;-77
2023/10/13 01:51:13;;;;;;;17.40;11.40;;;18.00;99.90;;;;;;5053066;28;20068;-77
2023/10/13 01:53:41;;;;;;;16.50;10.48;;;18.00;99.90;;;;;;5053240;28;20033;-78
2023/10/13 01:56:10;;;;;;;14.60;10.15;;;18.00;99.90;;;;;;5052934;28;20451;-78
2023/10/13 01:58:47;;;;;;;14.60;10.32;;;18.00;99.90;;;;;;5052867;28;20033;-79
2023/10/13 02:01:13;;;;;;;17.58;10.55;;;18.00;99.90;;;;;;5053327;28;20477;-79
2023/10/13 02:03:46;;;;;;;14.25;9.82;;;18.00;99.90;;;;;;5053413;28;20021;-79
2023/10/13 02:06:17;;;;;;;15.90;9.65;;;18.00;99.90;;;;;;5052822;28;20045;-79
2023/10/13 02:08:45;;;;;;;16.20;9.95;;;18.00;99.90;;;;;;5052889;28;20112;-79
2023/10/13 02:11:11;;;;;;;14.23;8.95;;;18.00;99.90;;;;;;5051556;28;20074;-79
2023/10/13 02:13:48;;;;;;;14.73;9.32;;;18.00;99.90;;;;;;5052294;28;20119;-78
2023/10/13 02:16:18;;;;;;;13.13;9.32;;;18.00;99.90;;;;;;5051662;28;20371;-77
2023/10/13 02:18:44;;;;;;;11.65;9.07;;;17.90;99.90;;;;;;5049887;28;20052;-78
2023/10/13 02:21:12;;;;;;;11.25;8.82;;;17.90;99.90;;;;;;5051959;28;20063;-78
2023/10/13 02:23:44;;;;;;;13.88;9.00;;;17.90;99.90;;;;;;4996874;28;1108034;-78
2023/10/13 02:26:30;;;;;;;12.85;8.95;;;17.90;99.90;;;;;;5035876;28;20036;-78
2023/10/13 02:29:01;;;;;;;11.13;8.23;;;17.90;99.90;;;;;;5033690;28;20068;-77
2023/10/13 02:31:28;;;;;;;13.65;8.20;;;17.90;99.90;;;;;;5033627;28;20477;-77
2023/10/13 02:33:54;;;;;;;13.77;7.70;;;17.90;99.90;;;;;;5033603;28;20057;-77
2023/10/13 02:36:35;;;;;;;12.27;7.50;;;17.90;99.90;;;;;;5033175;28;20053;-77
2023/10/13 02:39:08;;;;;;;15.00;8.20;;;17.90;99.90;;;;;;5037601;28;20055;-78
2023/10/13 02:41:37;;;;;;;16.48;8.68;;;17.90;99.90;;;;;;5053531;28;20112;-78
2023/10/13 02:44:10;;;;;;;12.38;7.93;;;17.90;99.90;;;;;;5053311;28;20033;-78
2023/10/13 02:46:36;;;;;;;15.43;7.55;;;17.90;99.90;;;;;;5053198;28;20064;-77
2023/10/13 02:49:10;;;;;;;11.20;7.10;;;17.90;99.90;;;;;;5035030;28;20041;-78
2023/10/13 02:51:41;;;;;;;14.43;7.45;;;17.90;99.90;;;;;;5053421;28;20461;-78
2023/10/13 02:54:10;;;;;;;14.23;7.03;;;17.90;99.90;;;;;;5053136;28;20513;-78
2023/10/13 02:56:36;;;;;;;14.13;6.88;;;17.90;99.90;;;;;;5053111;28;20104;-78
2023/10/13 02:59:05;;;;;;;13.38;6.97;;;17.90;99.90;;;;;;5053305;28;20016;-78
2023/10/13 03:01:35;;;;;;;8.60;6.88;;;17.90;99.90;;;;;;5053222;28;20037;-78
2023/10/13 03:04:12;;;;;;;11.05;6.57;;;17.90;99.90;;;;;;5052674;28;20501;-78
2023/10/13 03:06:40;;;;;;;12.93;7.20;;;17.90;99.90;;;;;;5035379;28;20041;-78
2023/10/13 03:09:19;;;;;;;16.90;6.78;;;17.90;99.90;;;;;;5053047;28;20450;-78
2023/10/13 03:11:51;;;;;;;11.50;6.03;;;18.00;99.90;;;;;;5052905;28;20025;-78
2023/10/13 03:14:23;;;;;;;10.48;6.25;;;18.00;99.90;;;;;;5052570;28;20033;-77
2023/10/13 03:17:02;;;;;;;9.85;6.07;;;18.00;99.90;;;;;;5053066;28;20055;-78
2023/10/13 03:19:32;;;;;;;7.88;5.70;;;18.00;99.90;;;;;;5022223;28;20068;-78
2023/10/13 03:22:16;;;;;;;9.18;5.63;;;18.00;99.90;;;;;;5034420;28;20116;-78
2023/10/13 03:24:46;;;;;;;10.60;5.72;;;18.00;99.90;;;;;;5053956;28;20516;-78
2023/10/13 03:27:16;;;;;;;10.00;5.72;;;18.00;99.90;;;;;;5055988;28;20029;-78
2023/10/13 03:29:43;;;;;;;11.10;5.50;;;18.00;99.90;;;;;;5056803;28;20032;-78
2023/10/13 03:32:16;;;;;;;9.15;5.43;;;18.00;99.90;;;;;;5038719;28;20124;-78
2023/10/13 03:34:52;;;;;;;10.15;4.68;;;18.00;99.90;;;;;;5056402;28;20508;-78
2023/10/13 03:42:59;;;;;;;9.75;4.93;;;18.00;99.90;;;;;;5056604;28;20036;-78
2023/10/13 03:45:26;;;;;;;9.63;4.78;;;18.00;99.90;;;;;;5055842;28;20077;-78
2023/10/13 03:47:52;;;;;;;13.25;6.40;;;17.90;99.90;;;;;;5056358;28;20033;-78
2023/10/13 03:50:32;;;;;;;10.48;4.80;;;17.90;99.90;;;;;;5050721;28;20060;-78
2023/10/13 03:52:58;;;;;;;10.20;5.28;;;17.90;99.90;;;;;;5056304;28;20033;-77
2023/10/13 03:55:27;;;;;;;12.15;5.80;;;17.90;99.90;;;;;;5055808;28;20044;-76
2023/10/13 03:57:53;;;;;;;12.60;6.43;;;17.90;99.90;;;;;;5038284;28;20025;-77
2023/10/13 04:00:38;;;;;;;10.25;6.35;;;17.90;99.90;;;;;;5045738;28;20029;-78
2023/10/13 04:03:08;;;;;;;10.57;6.82;;;17.90;99.90;;;;;;5036073;28;20471;-77
2023/10/13 04:05:46;;;;;;;11.02;6.70;;;17.90;99.90;;;;;;5019149;28;20037;-77
2023/10/13 04:32:28;;;;;;;14.45;8.50;;;17.80;99.90;;;;;;5055394;28;20048;-76
2023/10/13 04:38:00;;;;;;;15.25;8.82;;;17.80;99.90;;;;;;5055577;28;20116;-76
2023/10/13 04:40:28;;;;;;;14.43;8.30;;;17.80;99.90;;;;;;5037740;28;20040;-76
2023/10/13 04:42:56;;;;;;;16.63;9.50;;;17.80;99.90;;;;;;5055480;28;20025;-76
2023/10/13 04:48:17;;;;;;;16.50;10.00;;;17.70;99.90;;;;;;5052717;28;20040;-76
2023/10/13 04:50:46;;;;;;;19.42;10.07;;;17.80;99.90;;;;;;5030600;28;20500;-76
2023/10/13 04:53:30;;;;;;;19.25;10.77;;;17.80;99.90;;;;;;5037229;28;20420;-75
2023/10/13 06:31:06;;;;;;;12.45;7.82;;;18.40;99.90;;;;;;5052299;28;20040;-78
2023/10/13 06:33:33;;;;;;;9.48;7.18;;;18.40;99.90;;;;;;5051840;28;20025;-78
2023/10/13 06:36:03;;;;;;;11.57;6.80;;;18.40;99.90;;;;;;5051893;28;20041;-77
2023/10/13 06:38:36;;;;;;;14.55;6.40;;;18.40;99.90;;;;;;5051003;28;20043;-78
2023/10/13 06:41:05;;;;;;;11.05;6.60;;;18.40;99.90;;;;;;5034913;28;20112;-77
2023/10/13 06:43:40;;;;;;;9.77;6.57;;;18.40;99.90;;;;;;5051234;28;20382;-77
2023/10/13 06:46:14;;;;;;;10.15;6.72;;;18.40;99.90;;;;;;5035578;28;20033;-78
2023/10/13 06:48:41;;;;;;;12.15;6.82;;;18.50;99.90;;;;;;5034064;28;20473;-77
2023/10/13 06:51:21;;;;;;;9.23;6.57;;;18.40;99.90;;;;;;5051860;28;20029;-77
2023/10/13 06:53:48;;;;;;;8.52;6.22;;;18.40;99.90;;;;;;5051866;28;20036;-79
2023/10/13 06:56:39;;;;;;;13.38;7.20;;;18.50;99.90;;;;;;5051415;28;20492;-79
2023/10/13 06:59:04;;;;;;;9.68;7.10;;;18.50;99.90;;;;;;5054105;28;20037;-77
2023/10/13 07:01:32;;;;;;;12.23;6.32;;;18.50;99.90;;;;;;5055976;28;20040;-78
2023/10/13 07:04:01;;;;;;;13.38;6.43;;;18.50;99.90;;;;;;5055265;28;20024;-77
2023/10/13 07:06:27;;;;;;;10.23;5.57;;;18.50;99.90;;;;;;5045041;28;20150;-77
2023/10/13 07:08:53;;;;;;;8.85;5.55;;;18.50;99.90;;;;;;5049048;28;20048;-76
2023/10/13 07:11:33;;;;;;;10.93;6.15;;;18.50;99.90;;;;;;5050711;28;20032;-76
2023/10/13 07:14:16;;;;;;;10.52;6.00;;;18.50;99.90;;;;;;5033644;28;20029;-78
2023/10/13 07:16:59;;;;;;;11.38;5.88;;;18.50;99.90;;;;;;5048822;28;20132;-79
2023/10/13 07:19:29;;;;;;;13.48;5.93;;;18.50;99.90;;;;;;5049809;28;20479;-76
2023/10/13 07:21:59;;;;;;;12.15;6.22;;;18.50;99.90;;;;;;5049976;28;20103;-79
2023/10/13 07:24:39;;;;;;;9.00;5.85;;;18.50;99.90;;;;;;5053453;28;20051;-79
2023/10/13 07:27:05;;;;;;;11.43;6.03;;;18.50;99.90;;;;;;5036208;28;20099;-78
2023/10/13 07:29:35;;;;;;;10.10;6.85;;;18.50;99.90;;;;;;5055573;28;20036;-80
2023/10/13 07:32:12;;;;;;;10.23;5.80;;;18.50;99.90;;;;;;5056048;28;20416;-78
2023/10/13 07:34:39;;;;;;;12.85;5.90;;;18.50;99.90;;;;;;5056164;28;20033;-78
2023/10/13 07:37:12;;;;;;;11.88;5.20;;;18.50;99.90;;;;;;5055359;28;20017;-78
2023/10/13 07:39:40;;;;;;;10.05;5.70;;;18.50;99.90;;;;;;5055352;28;20061;-78
2023/10/13 07:42:06;;;;;;;12.00;6.35;;;18.50;99.90;;;;;;5052064;28;20025;-77
2023/10/13 07:44:40;;;;;;;13.25;6.07;;;18.50;99.90;;;;;;5036566;28;20029;-79
2023/10/13 07:47:07;;;;;;;11.48;5.82;;;18.50;99.90;;;;;;5037673;28;20052;-79
2023/10/13 07:49:37;;;;;;;12.68;5.97;;;18.50;99.90;;;;;;5051441;28;20066;-77
2023/10/13 07:54:49;;;;;;;9.48;6.10;;;18.50;99.90;;;;;;5044079;28;20033;-76
2023/10/13 07:57:17;;;;;;;13.63;6.85;;;18.50;99.90;;;;;;5051140;28;20073;-77
2023/10/13 07:59:52;;;;;;;10.63;5.93;;;18.50;99.90;;;;;;5048160;28;20032;-77
2023/10/13 08:05:04;;;;;;;12.43;6.22;;;18.60;99.90;;;;;;5051374;28;20330;-76
2023/10/13 08:07:31;;;;;;;12.23;5.97;;;18.60;99.90;;;;;;5047856;28;20028;-80
2023/10/13 08:09:59;;;;;;;13.30;6.28;;;18.60;99.90;;;;;;5048806;28;20064;-81
2023/10/13 08:12:25;;;;;;;9.95;5.97;;;18.60;99.90;;;;;;5033989;28;20405;-81
2023/10/13 08:15:09;;;;;;;16.08;6.45;;;18.60;99.90;;;;;;5015865;28;20170;-78
2023/10/13 08:17:35;;;;;;;12.77;6.10;;;18.60;99.90;;;;;;5033754;28;20033;-79
2023/10/13 08:20:11;;;;;;;15.18;5.38;;;18.60;99.90;;;;;;5033735;28;20040;-79
2023/10/13 08:22:38;;;;;;;13.80;5.60;;;18.70;99.90;;;;;;5047427;28;20036;-79
2023/10/13 08:28:46;;;;;;;16.00;5.93;;;18.70;99.90;;;;;;5053738;28;20044;-81
2023/10/13 08:30:53;;;;;;;14.40;5.82;;;18.80;99.90;;;;;;5049084;28;20091;-81
2023/10/13 08:33:19;;;;;;;18.77;6.15;;;18.80;99.90;;;;;;5032791;28;20029;-79
2023/10/13 08:35:54;;;;;;;13.70;5.32;;;18.80;99.90;;;;;;5050376;28;20501;-81
2023/10/13 08:38:28;;;;;;;19.17;7.30;;;18.90;99.90;;;;;;5049567;28;20405;-84
2023/10/13 08:43:39;;;;;;;15.75;6.18;;;18.90;99.90;;;;;;5050151;28;20041;-77
2023/10/13 08:46:06;;;;;;;17.35;6.30;;;18.90;99.90;;;;;;5053609;28;20047;-77
2023/10/13 08:48:32;;;;;;;14.45;4.93;;;19.00;99.90;;;;;;5032603;28;20095;-82
2023/10/13 08:51:08;;;;;;;11.75;6.38;;;19.00;99.90;;;;;;5053684;28;20539;-83
2023/10/13 08:53:44;;;;;;;15.80;6.03;;;19.10;99.90;;;;;;5052608;28;20123;-81
2023/10/13 09:04:20;;;;;;;15.55;5.05;;;19.10;99.90;;;;;;5053851;28;20063;-81
2023/10/13 09:12:13;;;;;;;17.20;5.65;;;19.30;99.90;;;;;;5054854;28;20111;-81
2023/10/13 09:14:44;;;;;;;16.33;6.40;;;19.30;99.90;;;;;;5054455;28;20036;-79
2023/10/13 09:19:55;;;;;;;13.50;4.82;;;19.30;99.90;;;;;;5054406;28;20396;-82
2023/10/13 09:22:54;;;;;;;14.85;5.07;;;19.40;99.90;;;;;;5052853;28;20112;-82
2023/10/13 09:25:14;;;;;;;16.67;4.35;;;19.50;99.90;;;;;;5044218;28;20497;-81
2023/10/13 09:27:40;;;;;;;15.55;4.47;;;19.50;99.90;;;;;;5036707;28;20047;-82
2023/10/13 09:30:18;;;;;;;17.05;4.88;;;19.50;99.90;;;;;;5053317;28;20028;-81
2023/10/13 09:32:48;;;;;;;13.38;4.57;;;19.50;99.90;;;;;;5054371;28;20044;-80
2023/10/13 09:35:27;;;;;;;11.77;4.78;;;19.60;99.90;;;;;;5035722;28;20124;-81
2023/10/13 09:37:56;;;;;;;15.93;6.28;;;19.60;99.90;;;;;;5053787;28;20052;-81
2023/10/13 09:40:26;;;;;;;12.48;4.45;;;19.60;99.90;;;;;;5052936;28;20068;-84
2023/10/13 09:42:56;;;;;;;12.57;5.15;;;19.60;99.90;;;;;;5052620;28;20087;-82
2023/10/13 09:45:36;;;;;;;12.10;4.68;;;19.60;99.90;;;;;;5049376;28;20049;-82
2023/10/13 09:48:12;;;;;;;14.77;4.57;;;19.60;99.90;;;;;;5051525;28;20029;-84
2023/10/13 09:50:44;;;;;;;17.27;5.18;;;19.70;99.90;;;;;;5053059;28;20296;-83
2023/10/13 09:53:10;;;;;;;13.47;5.00;;;19.70;99.90;;;;;;5053167;28;20028;-83
2023/10/13 09:55:44;;;;;;;17.67;5.72;;;19.70;99.90;;;;;;5052094;28;20036;-87
2023/10/13 09:58:15;;;;;;;10.27;4.93;;;19.70;99.90;;;;;;5050604;28;20079;-84
2023/10/13 10:00:46;;;;;;;12.52;4.93;;;19.70;99.90;;;;;;5051927;28;20091;-81
2023/10/13 10:03:39;;;;;;;15.20;5.70;;;19.70;99.90;;;;;;5050607;28;20029;-83
2023/10/13 10:06:07;;;;;;;15.30;4.93;;;19.70;99.90;;;;;;5050224;28;20045;-81
2023/10/13 10:08:34;;;;;;;17.10;4.97;;;19.80;99.90;;;;;;5049919;28;20036;-80
2023/10/13 10:11:23;;;;;;;18.73;5.28;;;19.80;99.90;;;;;;5052152;28;20052;-80
2023/10/13 10:14:04;;;;;;;18.75;5.28;;;19.80;99.90;;;;;;5048543;28;20028;-82
2023/10/13 10:17:01;;;;;;;14.27;4.75;;;19.80;99.90;;;;;;5047679;28;20116;-81
2023/10/13 10:19:30;;;;;;;17.02;4.60;;;19.80;99.90;;;;;;5052477;28;20046;-81
2023/10/13 10:22:18;;;;;;;13.70;4.90;;;19.90;99.90;;;;;;5052525;28;20029;-82
2023/10/13 10:24:44;;;;;;;15.38;5.18;;;19.90;99.90;;;;;;5052480;28;20048;-84
2023/10/13 10:27:14;;;;;;;19.48;5.60;;;19.90;99.90;;;;;;5034771;28;20025;-83
2023/10/13 10:30:03;;;;;;;15.27;4.60;;;19.90;99.90;;;;;;5034505;28;20039;-82
2023/10/13 10:32:36;;;;;;;20.02;5.00;;;19.90;99.90;;;;;;5032295;28;20079;-85
2023/10/13 10:35:14;;;;;;;9.43;4.70;;;19.90;99.90;;;;;;5050795;28;20037;-82
2023/10/13 10:37:46;;;;;;;18.00;5.32;;;20.00;99.90;;;;;;5049501;28;20075;-83
2023/10/13 10:40:32;;;;;;;14.57;4.72;;;20.00;99.90;;;;;;5052736;28;20060;-82
2023/10/13 10:43:00;;;;;;;18.42;4.80;;;20.00;99.90;;;;;;5052386;28;20132;-86
2023/10/13 10:45:32;;;;;;;18.58;5.45;;;19.90;99.90;;;;;;5034020;28;20049;-77
2023/10/13 10:47:58;;;;;;;12.68;4.60;;;20.00;99.90;;;;;;5014504;28;20044;-77
2023/10/13 10:50:36;;;;;;;14.48;4.40;;;20.00;99.90;;;;;;5051757;28;20037;-79
2023/10/13 10:53:08;;;;;;;12.52;4.40;;;20.10;99.90;;;;;;5052677;28;20083;-79
2023/10/13 10:55:36;;;;;;;17.80;6.35;;;20.10;99.90;;;;;;5053238;28;20481;-79
2023/10/13 10:58:06;;;;;;;18.88;5.38;;;20.10;99.90;;;;;;5034008;28;20424;-79
2023/10/13 11:00:45;;;;;;;13.18;5.10;;;20.10;99.90;;;;;;5050517;28;20059;-79
2023/10/13 11:03:12;;;;;;;13.13;5.00;;;20.20;99.90;;;;;;5049141;28;20033;-79
2023/10/13 11:05:50;;;;;;;12.65;4.47;;;20.10;99.90;;;;;;5051295;28;20033;-78
2023/10/13 11:08:31;;;;;;;19.05;4.70;;;20.20;99.90;;;;;;5047984;28;20036;-76
2023/10/13 11:11:01;;;;;;;12.05;4.65;;;20.20;99.90;;;;;;5048142;28;20039;-77
2023/10/13 11:13:31;;;;;;;13.60;5.18;;;20.30;99.90;;;;;;5032880;28;20071;-77
2023/10/13 11:15:57;;;;;;;13.63;4.80;;;20.30;99.90;;;;;;5030903;28;20048;-76
2023/10/13 11:18:40;;;;;;;17.67;5.75;;;20.30;99.90;;;;;;5051005;28;20025;-76
2023/10/13 11:21:07;;;;;;;14.80;5.28;;;20.40;99.90;;;;;;5049931;28;20032;-77
2023/10/13 11:23:36;;;;;;;15.77;4.90;;;20.40;99.90;;;;;;5051111;28;20084;-76
2023/10/13 11:26:04;;;;;;;14.38;4.60;;;20.40;99.90;;;;;;5047440;28;20045;-79
2023/10/13 11:28:31;;;;;;;13.43;4.85;;;20.40;99.90;;;;;;5050527;28;20032;-78
2023/10/13 11:31:19;;;;;;;14.98;4.82;;;20.40;99.90;;;;;;5048930;28;20436;-78
2023/10/13 11:33:47;;;;;;;12.35;4.25;;;20.40;99.90;;;;;;5049981;28;20074;-77
2023/10/13 11:36:17;;;;;;;18.15;5.07;;;20.40;99.90;;;;;;5016114;28;20120;-78
2023/10/13 11:38:49;;;;;;;14.77;4.57;;;20.50;99.90;;;;;;5033964;28;20036;-78
2023/10/13 11:41:15;;;;;;;17.45;5.20;;;20.50;99.90;;;;;;5033846;28;20029;-78
2023/10/13 11:51:44;;;;;;;16.38;5.18;;;20.70;99.90;;;;;;5038487;28;20044;-76
2023/10/13 11:54:15;;;;;;;14.35;4.55;;;20.80;99.90;;;;;;5048805;28;20033;-78
2023/10/13 11:56:44;;;;;;;20.45;5.13;;;20.90;99.90;;;;;;5054848;28;20614;-78
2023/10/13 11:59:17;;;;;;;18.95;5.72;;;20.80;99.90;;;;;;5055082;28;20021;-76
2023/10/13 12:04:40;;;;;;;14.63;4.80;;;20.90;99.90;;;;;;5053362;28;20079;-76
2023/10/13 12:12:21;;;;;;;13.93;5.13;;;21.00;99.90;;;;;;5053492;28;20485;-78
2023/10/13 12:14:52;;;;;;;17.50;5.82;;;21.00;99.90;;;;;;5054308;28;20025;-77
2023/10/13 12:17:24;;;;;;;16.60;5.13;;;21.10;99.90;;;;;;5054524;28;20052;-77
2023/10/13 12:19:57;;;;;;;14.95;5.10;;;21.10;99.90;;;;;;5035771;28;20040;-77
2023/10/13 12:22:35;;;;;;;15.82;5.78;;;21.10;99.70;;;;;;5054489;28;20120;-76
2023/10/13 12:25:04;;;;;;;20.55;4.93;;;21.20;99.50;;;;;;5051016;28;20507;-78
2023/10/13 12:27:45;;;;;;;14.60;4.68;;;21.20;99.60;;;;;;5034308;28;20064;-76
2023/10/13 12:30:13;;;;;;;17.60;6.05;;;21.20;99.50;;;;;;5035170;28;20377;-76
2023/10/13 12:32:44;;;;;;;15.02;5.03;;;21.20;99.60;;;;;;5054269;28;20041;-76
2023/10/13 12:51:21;;;;;;;18.20;4.95;;;21.40;99.10;;;;;;5052956;28;20496;-81
2023/10/13 12:53:50;;;;;;;22.27;5.18;;;21.40;99.00;;;;;;5054497;28;20025;-80
2023/10/13 12:56:17;;;;;;;15.93;5.05;;;21.40;98.90;;;;;;5033333;28;20421;-82
2023/10/13 12:58:51;;;;;;;13.30;5.35;;;21.40;98.80;;;;;;5053689;28;20044;-82
2023/10/13 13:01:20;;;;;;;18.88;5.82;;;21.40;98.80;;;;;;5053213;28;20485;-77
2023/10/13 13:03:46;;;;;;;17.35;5.47;;;21.40;98.80;;;;;;5053782;28;20045;-78
2023/10/13 13:06:26;;;;;;;16.52;5.22;;;21.40;98.80;;;;;;5053394;28;20135;-76
2023/10/13 13:08:52;;;;;;;16.95;4.90;;;21.40;98.50;;;;;;5052577;28;20029;-79
2023/10/13 13:11:17;;;;;;;16.08;5.53;;;21.50;98.50;;;;;;5053172;28;20355;-77
2023/10/13 13:13:46;;;;;;;13.27;5.00;;;21.50;98.20;;;;;;5050891;28;20029;-79
2023/10/13 13:16:12;;;;;;;15.05;5.80;;;21.50;98.20;;;;;;5053021;28;20041;-78
2023/10/13 13:18:39;;;;;;;13.80;5.30;;;21.50;98.40;;;;;;5053115;28;20037;-78
2023/10/13 13:21:06;;;;;;;18.63;4.90;;;21.50;98.30;;;;;;5033159;28;20086;-79
2023/10/13 13:23:34;;;;;;;16.90;5.47;;;21.50;98.30;;;;;;5035081;28;20094;-79
2023/10/13 13:26:00;;;;;;;14.32;5.00;;;21.50;98.20;;;;;;5052234;28;20813;-79
2023/10/13 13:28:28;;;;;;;17.52;4.72;;;21.50;98.20;;;;;;5053049;28;20040;-77
2023/10/13 13:30:54;;;;;;;19.13;5.13;;;21.50;98.20;;;;;;5052923;28;20028;-78
2023/10/13 13:33:25;;;;;;;15.45;5.25;;;21.60;98.20;;;;;;5052902;28;20098;-79
2023/10/13 13:35:54;;;;;;;15.98;4.63;;;21.60;98.30;;;;;;5053243;28;20397;-78
2023/10/13 13:38:22;;;;;;;14.25;5.20;;;21.50;98.20;;;;;;5051257;28;20493;-75
2023/10/13 13:40:54;;;;;;;18.20;5.32;;;21.60;98.20;;;;;;5052578;28;20131;-78
2023/10/13 13:43:40;;;;;;;16.98;5.20;;;21.60;98.00;;;;;;5052748;28;20115;-80
2023/10/13 13:46:10;;;;;;;17.30;5.45;;;21.50;98.20;;;;;;5051409;28;20119;-80
2023/10/13 13:48:37;;;;;;;15.23;4.95;;;21.60;98.30;;;;;;5053086;28;20120;-79
2023/10/13 13:51:14;;;;;;;12.52;5.03;;;21.50;98.30;;;;;;5052035;28;20469;-80
2023/10/13 13:53:44;;;;;;;22.20;4.82;;;21.50;98.40;;;;;;5035236;28;20025;-79
2023/10/13 13:56:18;;;;;;;18.15;5.15;;;21.50;98.70;;;;;;5052817;28;20036;-79
2023/10/13 13:58:49;;;;;;;13.10;5.20;;;21.50;98.60;;;;;;5050472;28;20021;-79
2023/10/13 14:01:18;;;;;;;17.92;5.03;;;21.50;98.50;;;;;;5034339;28;20044;-80
2023/10/13 14:03:45;;;;;;;13.95;4.68;;;21.40;98.70;;;;;;5052667;28;20058;-80
2023/10/13 14:06:21;;;;;;;15.00;4.40;;;21.50;98.70;;;;;;5051777;28;20378;-80
2023/10/13 14:08:51;;;;;;;16.30;4.82;;;21.40;98.80;;;;;;5050300;28;20033;-80
2023/10/13 14:11:56;;;;;;;18.05;5.13;;;21.40;98.80;;;;;;5052648;28;20040;-79
2023/10/13 14:14:11;;;;;;;21.58;4.78;;;21.40;98.80;;;;;;5050656;28;20037;-80
2023/10/13 14:16:44;;;;;;;19.90;4.65;;;21.40;99.10;;;;;;5052106;28;20529;-79
2023/10/13 14:19:19;;;;;;;13.60;4.25;;;21.30;99.00;;;;;;5052079;28;20033;-79
2023/10/13 14:21:45;;;;;;;16.45;5.07;;;21.30;99.00;;;;;;5034365;28;20041;-79
2023/10/13 14:24:14;;;;;;;17.83;4.95;;;21.30;99.20;;;;;;5050228;28;20485;-81
2023/10/13 14:26:42;;;;;;;14.57;4.63;;;21.30;99.10;;;;;;5051070;28;20044;-76
2023/10/13 14:29:09;;;;;;;12.70;4.75;;;21.20;99.20;;;;;;5050355;28;20042;-79
2023/10/13 14:31:39;;;;;;;14.13;4.53;;;21.20;99.50;;;;;;5052264;28;20036;-80
2023/10/13 14:34:05;;;;;;;15.20;4.55;;;21.20;99.30;;;;;;5052232;28;20481;-80
2023/10/13 14:36:34;;;;;;;21.17;4.57;;;21.20;99.70;;;;;;5051518;28;20040;-80
2023/10/13 14:39:01;;;;;;;22.30;4.60;;;21.10;99.60;;;;;;5034542;28;20158;-79
2023/10/13 14:41:26;;;;;;;12.68;3.85;;;21.10;99.60;;;;;;5051377;28;20037;-81
2023/10/13 14:43:52;;;;;;;13.80;4.00;;;21.10;99.60;;;;;;5052277;28;20040;-79
2023/10/13 14:46:22;;;;;;;14.48;4.35;;;21.10;99.60;;;;;;5051167;28;20104;-80
2023/10/13 14:48:51;;;;;;;16.75;4.32;;;21.10;99.70;;;;;;5052376;28;20028;-81
2023/10/13 14:51:17;;;;;;;17.98;4.38;;;21.10;99.90;;;;;;5053598;28;20037;-81
2023/10/13 14:53:44;;;;;;;16.35;4.22;;;21.00;99.90;;;;;;5035266;28;20037;-82
2023/10/13 14:56:16;;;;;;;17.20;4.78;;;21.00;99.90;;;;;;5049789;28;20107;-79
2023/10/13 14:58:43;;;;;;;16.10;4.38;;;20.90;99.90;;;;;;5052892;28;20582;-81
2023/10/13 15:01:16;;;;;;;18.75;4.55;;;20.90;99.90;;;;;;5035133;28;20036;-83
2023/10/13 15:03:46;;;;;;;16.70;4.10;;;20.90;99.90;;;;;;5049902;28;20100;-82
2023/10/13 15:06:28;;;;;;;17.20;4.53;;;20.80;99.90;;;;;;5051994;28;20473;-82
2023/10/13 15:08:56;;;;;;;12.45;4.35;;;20.80;99.90;;;;;;5049827;28;20029;-83
2023/10/13 15:11:26;;;;;;;19.13;4.78;;;20.80;99.90;;;;;;5033846;28;20025;-80
2023/10/13 15:13:56;;;;;;;14.75;4.60;;;20.80;99.90;;;;;;5052018;28;20041;-81
2023/10/13 15:16:29;;;;;;;13.52;4.43;;;20.70;99.90;;;;;;5051530;28;20473;-81
2023/10/13 15:18:54;;;;;;;13.27;4.53;;;20.80;99.90;;;;;;5053327;28;20035;-82
2023/10/13 15:21:34;;;;;;;19.50;4.72;;;20.70;99.90;;;;;;5055800;28;20025;-80
2023/10/13 15:24:04;;;;;;;15.35;4.75;;;20.70;99.90;;;;;;5056059;28;20056;-80
2023/10/13 15:26:37;;;;;;;14.55;4.80;;;20.70;99.90;;;;;;5056185;28;20045;-80
2023/10/13 15:29:09;;;;;;;13.18;4.53;;;20.60;99.90;;;;;;5055707;28;20401;-80
2023/10/13 15:34:12;;;;;;;20.75;5.57;;;20.60;99.90;;;;;;5054548;28;20048;-80
2023/10/13 15:36:45;;;;;;;14.45;4.45;;;20.60;99.90;;;;;;5054398;28;20033;-79
2023/10/13 15:39:15;;;;;;;12.80;4.85;;;20.60;99.90;;;;;;5051505;28;20415;-78
2023/10/13 15:41:41;;;;;;;16.60;4.60;;;20.50;99.90;;;;;;5034612;28;20029;-82
2023/10/13 15:44:16;;;;;;;15.80;4.55;;;20.40;99.90;;;;;;5055369;28;20021;-82
2023/10/13 15:46:41;;;;;;;14.25;4.50;;;20.40;99.90;;;;;;5052899;28;20029;-82
2023/10/13 15:49:07;;;;;;;20.90;4.95;;;20.40;99.90;;;;;;5036139;28;20029;-82
2023/10/13 15:51:36;;;;;;;10.85;4.53;;;20.30;99.90;;;;;;5054973;28;20028;-81
2023/10/13 15:54:03;;;;;;;13.82;4.68;;;20.30;99.90;;;;;;5037308;28;20029;-80
2023/10/13 15:56:32;;;;;;;14.07;4.40;;;20.30;99.90;;;;;;5054774;28;20489;-81
2023/10/13 15:59:06;;;;;;;16.80;4.72;;;20.30;99.90;;;;;;5052843;28;20021;-81
2023/10/13 16:01:35;;;;;;;11.85;5.05;;;20.30;99.90;;;;;;5037889;28;20120;-79
2023/10/13 16:04:10;;;;;;;15.32;4.05;;;20.20;99.90;;;;;;5036254;28;20070;-80
2023/10/13 16:06:39;;;;;;;12.02;4.50;;;20.20;99.90;;;;;;5054762;28;20110;-80
2023/10/13 16:09:13;;;;;;;16.27;5.40;;;20.20;99.90;;;;;;5053133;28;20025;-81
2023/10/13 16:11:42;;;;;;;14.18;5.70;;;20.20;99.90;;;;;;5054811;28;20029;-80
2023/10/13 16:14:10;;;;;;;13.50;6.22;;;20.10;99.90;;;;;;5051773;28;20037;-80